Kamp-Lintfort Airport

EDLC · Nordrhein-Westfalen, Deutschland

METAR-Geschichte EDLC · Kamp-Lintfort Airport

Unten siehst du die METARs der letzten paar Tage. Wähle ein Jahr, um ältere METARs ab dem Jahr 2007 zu durchsuchen.

2. Dezember 2022

Uhrzeit Code Wetter Temp. Sichtweite Wolkendecke Wind METAR/SPECI
04:20
M
3 °C 7 km 1.300 ft 050° 050° 4 kt SPECI EDLV 020320Z AUTO 05004KT 350V110 7000 // SCT011/// OVC013/// 03/01 Q1025
04:20
M
3 °C 7 km 1.300 ft 050° 050° 4 kt METAR EDLV 020320Z AUTO 05004KT 350V110 7000 // SCT011/// OVC013/// 03/01 Q1025
03:50
M
3 °C 6 km 1.200 ft 040° 040° 5 kt METAR EDLV 020250Z AUTO 04005KT 340V090 6000 // OVC012/// 03/01 Q1025
03:20
M
3 °C 7 km 1.400 ft 050° 050° 4 kt METAR EDLV 020220Z AUTO 05004KT 010V120 7000 // OVC014/// 03/01 Q1025
02:50
M
3 °C 7 km 1.600 ft 040° 040° 4 kt METAR EDLV 020150Z AUTO 04004KT 360V120 7000 // SCT014/// OVC016/// 03/01 Q1025
02:20
M
4 °C 7 km 1.500 ft 050° 050° 4 kt METAR EDLV 020120Z AUTO 05004KT 350V090 7000 // OVC015/// 04/01 Q1025
01:50
M
4 °C 8 km 1.500 ft 040° 040° 4 kt METAR EDLV 020050Z AUTO 04004KT 350V120 8000 // OVC015/// 04/01 Q1025
01:20
M
4 °C 6 km 1.500 ft 050° 050° 3 kt METAR EDLV 020020Z AUTO 05003KT 350V100 6000 // OVC015/// 04/01 Q1025
00:50
M
4 °C 6 km 1.500 ft 060° 060° 4 kt METAR EDLV 012350Z AUTO 06004KT 350V120 6000 // OVC015/// 04/01 Q1026
00:20
M
4 °C 6 km 1.300 ft 060° 060° 5 kt METAR EDLV 012320Z AUTO 06005KT 010V110 6000 // OVC013/// 04/02 Q1026

1. Dezember 2022

Uhrzeit Code Wetter Temp. Sichtweite Wolkendecke Wind METAR/SPECI
23:50
M
5 °C 6 km 1.600 ft Var Var 4 kt METAR EDLV 012250Z AUTO VRB04KT 6000 // FEW011/// SCT013/// OVC016/// 05/02 Q1026
23:20
M
5 °C 5 km 1.600 ft Var Var 3 kt METAR EDLV 012220Z VRB03KT 5000 BR SCT011 BKN016 OVC043 05/03 Q1026
22:50
M
5 °C 5 km 1.900 ft 050° 050° 4 kt METAR EDLV 012150Z 05004KT 350V130 5000 BR FEW011 BKN019 OVC042 05/03 Q1026
22:20
M
5 °C 5 km 2.000 ft 050° 050° 4 kt METAR EDLV 012120Z 05004KT 350V100 5000 BR SCT011 BKN020 OVC043 05/04 Q1026
21:50
M
5 °C 5 km 1.200 ft Var Var 2 kt METAR EDLV 012050Z VRB02KT 5000 BR SCT010 BKN012 OVC017 05/04 Q1026
21:20
M
5 °C 5 km 1.000 ft 040° 040° 3 kt METAR EDLV 012020Z 04003KT 350V080 5000 BR OVC010 05/04 Q1026
20:50
M
5 °C 5 km 1.500 ft Var Var 2 kt METAR EDLV 011950Z VRB02KT 5000 BR SCT009 OVC015 05/04 Q1026
20:20
M
5 °C 6 km 1.300 ft 040° 040° 4 kt METAR EDLV 011920Z 04004KT 350V080 6000 FEW010 BKN013 OVC018 05/04 Q1026
19:50
M
6 °C 6 km 1.100 ft 040° 040° 3 kt METAR EDLV 011850Z 04003KT 350V090 6000 BKN011 OVC017 06/04 Q1027
19:20
M
6 °C 8 km 1.000 ft 030° 030° 4 kt METAR EDLV 011820Z 03004KT 350V120 8000 BKN010 OVC014 06/04 Q1027
18:50
M
6 °C 9 km 1.200 ft 030° 030° 4 kt METAR EDLV 011750Z 03004KT 350V070 9000 BKN012 OVC017 06/04 Q1027
18:20
M
6 °C 10 km+ 1.300 ft 020° 020° 4 kt METAR EDLV 011720Z 02004KT 320V080 9999 OVC013 06/03 Q1027
17:50
M
6 °C 10 km+ 1.400 ft 030° 030° 3 kt METAR EDLV 011650Z 03003KT 330V060 9999 SCT012 OVC014 06/03 Q1026
17:20
M
6 °C 9 km 1.300 ft 030° 030° 4 kt METAR EDLV 011620Z 03004KT 340V150 9000 SCT010 OVC013 06/04 Q1027
16:50
I
6 °C 9 km 900 ft 030° 030° 4 kt METAR EDLV 011550Z 03004KT 330V080 9000 BKN009 OVC013 06/04 Q1026
16:20
M
6 °C 8 km 1.100 ft 030° 030° 4 kt METAR EDLV 011520Z 03004KT 350V070 8000 SCT009 OVC011 06/04 Q1026
15:50
M
6 °C 8 km 1.200 ft 050° 050° 5 kt METAR EDLV 011450Z 05005KT 310V110 8000 SCT009 OVC012 06/04 Q1026
15:20
M
6 °C 8 km 1.200 ft 030° 030° 4 kt METAR EDLV 011420Z 03004KT 340V100 8000 OVC012 06/04 Q1026
14:50
M
6 °C 7 km 1.100 ft 030° 030° 4 kt METAR EDLV 011350Z 03004KT 340V080 7000 OVC011 06/04 Q1026
14:20
M
6 °C 6 km 1.100 ft 050° 050° 3 kt METAR EDLV 011320Z 05003KT 010V130 6000 OVC011 06/04 Q1027
13:50
M
6 °C 6 km 1.000 ft 040° 040° 4 kt METAR EDLV 011250Z 04004KT 340V110 6000 OVC010 06/04 Q1027
13:20
M
6 °C 6 km 1.100 ft 030° 030° 4 kt METAR EDLV 011220Z 03004KT 330V080 6000 OVC011 06/04 Q1027
12:50
M
6 °C 6 km 1.100 ft 030° 030° 5 kt METAR EDLV 011150Z 03005KT 340V080 6000 OVC011 06/04 Q1027
12:20
M
6 °C 6 km 1.100 ft 030° 030° 4 kt METAR EDLV 011120Z 03004KT 340V100 6000 OVC011 06/04 Q1027
11:50
M
6 °C 6 km 2.200 ft 030° 030° 4 kt METAR EDLV 011050Z 03004KT 340V070 6000 SCT011 BKN022 OVC046 06/04 Q1027
11:20
M
6 °C 6 km 2.200 ft 020° 020° 4 kt METAR EDLV 011020Z 02004KT 320V070 6000 SCT010 BKN022 OVC048 06/04 Q1027
10:50
M
6 °C 6 km 2.200 ft 030° 030° 4 kt METAR EDLV 010950Z 03004KT 340V060 6000 SCT010 BKN022 OVC048 06/04 Q1028
10:20
M
6 °C 6 km 2.000 ft 020° 020° 4 kt METAR EDLV 010920Z 02004KT 330V100 6000 SCT010 BKN020 OVC026 06/04 Q1028
09:50
M
5 °C 5 km 2.400 ft 030° 030° 3 kt METAR EDLV 010850Z 03003KT 330V100 5000 BR FEW009 OVC024 05/04 Q1028
09:20
M
5 °C 5 km 2.200 ft 030° 030° 3 kt METAR EDLV 010820Z 03003KT 330V080 5000 BR FEW009 OVC022 05/04 Q1027
08:50
M
5 °C 6 km 2.200 ft 030° 030° 3 kt METAR EDLV 010750Z 03003KT 340V080 6000 SCT009 BKN022 BKN040 05/04 Q1027
08:20
M
5 °C 5 km 2.200 ft 020° 020° 3 kt METAR EDLV 010720Z 02003KT 340V100 5000 BR FEW009 BKN022 05/04 Q1027
07:50
M
6 °C 6 km 2.100 ft 030° 030° 4 kt METAR EDLV 010650Z 03004KT 340V070 6000 SCT009 OVC021 06/04 Q1027
07:20
I
6 °C 6 km 800 ft 020° 020° 4 kt METAR EDLV 010620Z 02004KT 340V070 6000 BKN008 OVC016 06/04 Q1027
06:50
M
6 °C 7 km 1.600 ft 030° 030° 3 kt METAR EDLV 010550Z 03003KT 310V090 7000 FEW007 SCT009 OVC016 06/04 Q1027
06:20
M
6 °C 7 km 1.400 ft 030° 030° 4 kt METAR EDLV 010520Z 03004KT 350V090 7000 SCT008 BKN014 OVC021 06/04 Q1027
05:50
I
6 °C 6 km 800 ft 030° 030° 5 kt METAR EDLV 010450Z 03005KT 340V080 6000 OVC008 06/04 Q1027
05:20
I
6 °C 5 km 800 ft 030° 030° 4 kt METAR EDLV 010420Z 03004KT 350V080 5000 BR SCT006 BKN008 OVC025 06/05 Q1027
04:50
I
6 °C 5 km 600 ft 040° 040° 4 kt METAR EDLV 010350Z 04004KT 350V070 5000 BR SCT003 OVC006 06/05 Q1026
04:20
L
6 °C 4,6 km 300 ft 030° 030° 4 kt METAR EDLV 010320Z AUTO 03004KT 340V090 4600 // OVC003/// 06/05 Q1026
03:50
L
6 °C 4,2 km 400 ft 040° 040° 5 kt METAR EDLV 010250Z AUTO 04005KT 360V090 4200 // OVC004/// 06/05 Q1026
03:20
L
6 °C 4,3 km 400 ft 030° 030° 4 kt METAR EDLV 010220Z AUTO 03004KT 340V070 4300 // OVC004/// 06/05 Q1026
02:50
L
6 °C 4,9 km 400 ft 030° 030° 4 kt METAR EDLV 010150Z AUTO 03004KT 330V090 4900 // OVC004/// 06/05 Q1027
02:20
I
6 °C 5 km 500 ft Var Var 3 kt METAR EDLV 010120Z AUTO VRB03KT 5000 // OVC005/// 06/04 Q1026
01:50
I
6 °C 5 km 500 ft Var Var 4 kt METAR EDLV 010050Z AUTO VRB04KT 5000 // OVC005/// 06/04 Q1026
01:20
I
6 °C 5 km 500 ft 020° 020° 4 kt METAR EDLV 010020Z AUTO 02004KT 320V080 5000 // OVC005/// 06/04 Q1026
00:50
I
6 °C 6 km 600 ft 020° 020° 3 kt METAR EDLV 302350Z AUTO 02003KT 330V080 6000 // OVC006/// 06/05 Q1026
00:20
I
6 °C 5 km 500 ft Var Var 3 kt METAR EDLV 302320Z AUTO VRB03KT 5000 // OVC005/// 06/05 Q1026

30. November 2022

Uhrzeit Code Wetter Temp. Sichtweite Wolkendecke Wind METAR/SPECI
23:50
I
6 °C 5 km 500 ft Var Var 3 kt METAR EDLV 302250Z AUTO VRB03KT 5000 // OVC005/// 06/05 Q1026
23:20
I
6 °C 5 km 500 ft 020° 020° 4 kt METAR EDLV 302220Z 02004KT 330V090 5000 BR OVC005 06/05 Q1026
22:50
I
6 °C 6 km 700 ft 020° 020° 3 kt METAR EDLV 302150Z 02003KT 320V080 6000 -RA SCT005 OVC007 06/05 Q1026
22:20
I
6 °C 7 km 700 ft 020° 020° 3 kt METAR EDLV 302120Z 02003KT 340V060 7000 -RA OVC007 06/05 Q1026
21:50
I
6 °C 7 km 600 ft 030° 030° 4 kt METAR EDLV 302050Z 03004KT 340V090 7000 OVC006 06/05 Q1026
21:20
I
6 °C 7 km 700 ft 020° 020° 3 kt METAR EDLV 302020Z 02003KT 330V080 7000 OVC007 06/05 Q1026
20:50
I
6 °C 7 km 800 ft 020° 020° 3 kt METAR EDLV 301950Z 02003KT 300V080 7000 BKN008 OVC012 06/05 Q1026
20:20
I
6 °C 7 km 700 ft 030° 030° 3 kt METAR EDLV 301920Z 03003KT 300V110 7000 OVC007 06/05 Q1026
19:50
I
6 °C 7 km 800 ft 030° 030° 3 kt METAR EDLV 301850Z 03003KT 340V080 7000 OVC008 06/05 Q1026
19:20
I
6 °C 7 km 700 ft 040° 040° 3 kt METAR EDLV 301820Z 04003KT 340V100 7000 OVC007 06/05 Q1025
18:50
I
6 °C 7 km 800 ft 030° 030° 3 kt METAR EDLV 301750Z 03003KT 320V070 7000 OVC008 06/05 Q1025
18:20
I
7 °C 8 km 900 ft 040° 040° 4 kt METAR EDLV 301720Z 04004KT 360V120 8000 OVC009 07/05 Q1025
17:50
I
7 °C 8 km 900 ft 030° 030° 4 kt METAR EDLV 301650Z 03004KT 350V070 8000 OVC009 07/05 Q1025
17:20
I
7 °C 9 km 900 ft 020° 020° 4 kt METAR EDLV 301620Z 02004KT 340V110 9000 OVC009 07/05 Q1025
16:50
M
7 °C 10 km+ 1.200 ft Var Var 2 kt METAR EDLV 301550Z VRB02KT 9999 SCT010 BKN012 OVC017 07/05 Q1024
16:20
M
7 °C 10 km+ 2.000 ft Var Var 1 kt METAR EDLV 301520Z VRB01KT 9999 FEW014 OVC020 07/05 Q1024
15:50
M
7 °C 10 km+ 1.500 ft Var Var 2 kt METAR EDLV 301450Z VRB02KT 9999 OVC015 07/05 Q1024
15:20
M
8 °C 10 km+ 2.000 ft Var Var 1 kt METAR EDLV 301420Z VRB01KT 9999 SCT016 OVC020 08/05 Q1024
14:50
M
8 °C 10 km+ 1.800 ft Var Var 2 kt METAR EDLV 301350Z VRB02KT 9999 BKN018 08/04 Q1024
14:20
M
8 °C 10 km+ 1.700 ft 030° 030° 4 kt METAR EDLV 301320Z 03004KT 320V120 9999 FEW014 BKN017 08/04 Q1024
13:50
M
8 °C 10 km+ 1.500 ft Var Var 4 kt METAR EDLV 301250Z VRB04KT 9999 BKN015 BKN019 08/05 Q1024
13:20
M
8 °C 10 km+ 1.500 ft Var Var 4 kt METAR EDLV 301220Z VRB04KT 9999 SCT012 BKN015 08/05 Q1024
12:50
V
7 °C 10 km+ - Var Var 3 kt METAR EDLV 301150Z VRB03KT 9999 SCT010 SCT036 07/05 Q1024
12:20
I
7 °C 8 km 700 ft 010° 010° 3 kt METAR EDLV 301120Z 01003KT 310V070 8000 BKN007 07/05 Q1024
11:50
I
7 °C 6 km 700 ft Var Var 4 kt METAR EDLV 301050Z VRB04KT 6000 FEW005 OVC007 07/06 Q1024
11:20
I
6 °C 4,3 km 3.200 ft 330° 330° 3 kt METAR EDLV 301020Z 33003KT 270V050 4300 BR FEW004 SCT008 OVC032 06/06 Q1024
10:50
I
6 °C 3,9 km 3.100 ft 320° 320° 3 kt METAR EDLV 300950Z 32003KT 290V010 3900 BR OVC031 06/06 Q1024
10:20
I
5 °C 4,1 km 3.400 ft Var Var 2 kt METAR EDLV 300920Z VRB02KT 4100 BR FEW016 OVC034 05/05 Q1024
09:50
I
5 °C 3,6 km 1.500 ft Var Var 2 kt METAR EDLV 300850Z VRB02KT 3600 BR BKN015 OVC035 05/05 Q1024
09:20
I
5 °C 3,7 km 1.500 ft Var Var 1 kt METAR EDLV 300820Z VRB01KT 3700 BR BKN015 OVC035 05/05 Q1024
08:50
I
4 °C 1,9 km 1.700 ft Var 000° 0 kt METAR EDLV 300750Z 00000KT 1900 R27/1300D BR SCT014 OVC017 04/04 Q1024
08:20
L
3 °C 600 m - Var Var 1 kt METAR EDLV 300720Z VRB01KT 0600 R27/1500U FG FEW004 SCT016 03/03 Q1023
07:50
L
3 °C 400 m - Var Var 1 kt METAR EDLV 300650Z VRB01KT 0400 R27/0650N FG SCT003 03/03 Q1023
07:20
L
3 °C 400 m - Var 000° 0 kt METAR EDLV 300620Z 00000KT 0400 R27/0450N FG SCT003 03/03 Q1023
06:50
L
4 °C 500 m - Var Var 1 kt METAR EDLV 300550Z VRB01KT 0500 R27/0650D FG SCT004 04/04 Q1023
06:20
I
5 °C 3,6 km - Var 000° 0 kt METAR EDLV 300520Z 00000KT 3600 BR FEW009 05/05 Q1022
05:50
I
6 °C 3,8 km - Var Var 1 kt METAR EDLV 300450Z VRB01KT 3800 BR NSC 06/06 Q1022
05:20
I
6 °C 4,2 km - 320° 320° 2 kt METAR EDLV 300420Z 32002KT 4200 BR NSC 06/06 Q1022
04:50
I
6 °C 4,6 km - Var Var 2 kt METAR EDLV 300350Z VRB02KT 4600 BR FEW039 06/06 Q1022
04:20
I
7 °C 4,8 km 5.900 ft Var Var 2 kt METAR EDLV 300320Z AUTO VRB02KT 4800 // FEW017/// OVC059/// 07/06 Q1022
03:50
M
7 °C 6 km 5.900 ft Var Var 1 kt METAR EDLV 300250Z AUTO VRB01KT 6000 // OVC059/// 07/06 Q1022
03:20
M
7 °C 6 km 5.700 ft Var Var 2 kt SPECI EDLV 300220Z AUTO VRB02KT 6000 // SCT009/// OVC057/// 07/06 Q1022
02:50
I
7 °C 6 km 800 ft Var Var 3 kt METAR EDLV 300150Z AUTO VRB03KT 6000 // OVC008/// 07/06 Q1022
02:20
M
7 °C 6 km 1.000 ft Var Var 2 kt METAR EDLV 300120Z AUTO VRB02KT 6000 // SCT008/// BKN010/// OVC055/// 07/07 Q1022
01:50
I
7 °C 5 km 600 ft Var Var 2 kt METAR EDLV 300050Z AUTO VRB02KT 5000 // FEW003/// BKN006/// OVC056/// 07/07 Q1022
01:20
L
8 °C 2,7 km 200 ft 320° 320° 3 kt METAR EDLV 300020Z AUTO 32003KT 290V360 2700 // BKN002/// BKN005/// OVC008/// 08/07 Q1022
00:50
L
7 °C 900 m - 310° 310° 3 kt METAR EDLV 292350Z AUTO 31003KT 280V340 1100 0900 R27/1200U // VV/// 07/07 Q1022
00:20
L
7 °C 900 m - 300° 300° 4 kt METAR EDLV 292320Z AUTO 30004KT 1100 0900 R27/1200N // VV/// 07/07 Q1022

29. November 2022

Uhrzeit Code Wetter Temp. Sichtweite Wolkendecke Wind METAR/SPECI
23:50
L
7 °C 1,3 km - 290° 290° 4 kt METAR EDLV 292250Z AUTO 29004KT 1600 1300 R27/2000D // VV/// 07/07 Q1022
23:20
L
7 °C 2,2 km 100 ft 280° 280° 4 kt METAR EDLV 292220Z 28004KT 2200 BR BKN001 OVC005 07/07 Q1021
22:50
L
7 °C 2,1 km 200 ft 280° 280° 4 kt METAR EDLV 292150Z 28004KT 2100 BR OVC002 07/07 Q1021
22:20
L
7 °C 2,9 km 300 ft 280° 280° 5 kt METAR EDLV 292120Z 28005KT 2900 BR OVC003 07/07 Q1021
21:50
L
7 °C 3,1 km 200 ft 280° 280° 5 kt METAR EDLV 292050Z 28005KT 3100 BR OVC002 07/07 Q1021
21:20
L
7 °C 3,2 km 300 ft 280° 280° 5 kt METAR EDLV 292020Z 28005KT 3200 BR OVC003 07/07 Q1021
20:50
L
7 °C 3,3 km 300 ft 270° 270° 5 kt METAR EDLV 291950Z 27005KT 3300 BR OVC003 07/07 Q1021
20:20
L
7 °C 2,8 km 200 ft 270° 270° 5 kt METAR EDLV 291920Z 27005KT 2800 BR BKN002 OVC005 07/07 Q1021
19:50
L
7 °C 1 km - 270° 270° 5 kt METAR EDLV 291850Z 27005KT 1000 R27/1100D BR VV/// 07/07 Q1021
19:20
L
7 °C 1,2 km - 270° 270° 5 kt METAR EDLV 291820Z 27005KT 1200 R27/P2000N BR VV/// 07/07 Q1021
18:50
L
7 °C 3,4 km 200 ft 230° 230° 3 kt METAR EDLV 291750Z 23003KT 3400 BR BKN002 07/07 Q1020
18:20
L
7 °C 3,3 km 200 ft 230° 230° 3 kt METAR EDLV 291720Z 23003KT 3300 BR BKN002 07/07 Q1020
17:50
I
7 °C 3 km 2.800 ft 220° 220° 2 kt METAR EDLV 291650Z 22002KT 3000 BR SCT003 BKN028 BKN048 07/07 Q1020
17:20
I
7 °C 3,1 km 2.800 ft Var Var 1 kt METAR EDLV 291620Z VRB01KT 3100 BR FEW003 BKN028 07/06 Q1020
16:50
I
7 °C 3,9 km 2.700 ft 250° 250° 5 kt METAR EDLV 291550Z 25005KT 3900 BR FEW003 SCT023 BKN027 07/07 Q1020
16:20
I
8 °C 3,4 km 2.000 ft Var Var 2 kt METAR EDLV 291520Z VRB02KT 3400 BR FEW003 BKN020 OVC027 08/07 Q1020
15:50
L
8 °C 3,1 km 200 ft 280° 280° 4 kt METAR EDLV 291450Z 28004KT 3100 BR OVC002 08/07 Q1020
15:20
L
7 °C 2,1 km 100 ft 270° 270° 6 kt METAR EDLV 291420Z 27006KT 2100 BR BKN001 OVC005 07/07 Q1020
14:50
L
7 °C 2,2 km 200 ft 260° 260° 6 kt METAR EDLV 291350Z 26006KT 2200 BR BKN002 OVC005 07/07 Q1020
14:20
L
7 °C 2,7 km 200 ft 280° 280° 5 kt METAR EDLV 291320Z 28005KT 2700 BR OVC002 07/07 Q1019
13:50
L
7 °C 1,2 km 200 ft 320° 320° 3 kt METAR EDLV 291250Z 32003KT 280V030 1200 R27/P2000N BR BKN002 OVC004 07/07 Q1019
13:20
L
7 °C 1 km 200 ft 340° 340° 3 kt METAR EDLV 291220Z 34003KT 280V030 1200 1000 R27/1400U BR BKN002 OVC005 07/07 Q1019
12:50
L
7 °C 900 m 100 ft 340° 340° 3 kt METAR EDLV 291150Z 34003KT 290V030 1300 0900 R27/1400D BR BKN001 OVC005 07/07 Q1019
12:20
L
8 °C 2,1 km 100 ft 310° 310° 4 kt METAR EDLV 291120Z 31004KT 280V360 2100 BR BKN001 OVC005 08/07 Q1018
11:50
L
7 °C 1,3 km 100 ft 300° 300° 3 kt METAR EDLV 291050Z 30003KT 270V340 1300 R27/2000U BR BKN001 OVC005 07/07 Q1018
11:20
L
7 °C 1,7 km 200 ft 300° 300° 4 kt METAR EDLV 291020Z 30004KT 270V330 1700 BR BKN002 OVC005 07/07 Q1019
10:50
L
7 °C 2,6 km 100 ft 280° 280° 4 kt METAR EDLV 290950Z 28004KT 2600 BR OVC001 07/07 Q1018

Wir und Dritte verfolgen dein Internetverhalten auf unserer Website mit Cookies. Wenn du fortfährst, gehen wir davon aus, dass du mit unserer Cookie-Richtlinie einverstanden bist.